KHFF/HFF METAR and TAF weather

Enter ICAO airport designator
Station Type Date Time Source
KHFF METAR 2019/07/15 20:24 UTC NOAA

KHFF 152024Z AUTO 14004KT 10SM CLR 36/19 A3004 RMK AO2 SLP184 $


Station Type Date Time Source
KHFF Decoded METAR 2019/07/15 20:24 UTC NOAA

Mackall U. S. Army Airfield, NC, United States (KHFF) 35-02N 079-30W
Jul 15, 2019 - 04:24 PM EDT / 2019.07.15 2024 UTC
Wind: from the SE (140 degrees) at 5 MPH (4 KT):0
Visibility: 10 mile(s):0
Sky conditions: clear
Temperature: 96 F (36 C)
Heat index: 98.6 F (37.0 C):1
Dew Point: 66 F (19 C)
Relative Humidity: 36%
Pressure (altimeter): 30.04 in. Hg (1017 hPa)
ob: KHFF 152024Z AUTO 14004KT 10SM CLR 36/19 A3004 RMK AO2 SLP184
cycle: 20

Station Type Date Time Source
KHFF TAF UTC NOAA

Error!

Example: see airport list